createdAt,value
2023-02-09T00:00:19.027Z,75.56
2023-02-09T00:01:19.275Z,75.56
2023-02-09T00:02:19.594Z,75.56
2023-02-09T00:03:19.877Z,75.35
2023-02-09T00:04:20.145Z,75.24
2023-02-09T00:05:20.366Z,75.24
2023-02-09T00:06:20.628Z,75.35
2023-02-09T00:07:20.878Z,75.46
2023-02-09T00:08:21.128Z,75.46
2023-02-09T00:09:21.376Z,75.46
2023-02-09T00:10:21.620Z,75.35
2023-02-09T00:11:21.869Z,75.46
2023-02-09T00:12:22.154Z,75.46
2023-02-09T00:13:22.401Z,75.46
2023-02-09T00:14:22.635Z,75.35
2023-02-09T00:15:22.870Z,75.46
2023-02-09T00:16:23.201Z,75.46
2023-02-09T00:17:23.461Z,75.46
2023-02-09T00:18:23.724Z,75.46
2023-02-09T00:19:23.962Z,75.46
2023-02-09T00:20:24.241Z,75.46
2023-02-09T00:21:24.457Z,75.59
2023-02-09T00:22:24.716Z,75.70
2023-02-09T00:23:24.951Z,75.70
2023-02-09T00:24:25.200Z,75.81
2023-02-09T00:25:25.442Z,75.77
2023-02-09T00:26:25.691Z,75.67
2023-02-09T00:27:25.961Z,75.56
2023-02-09T00:28:26.232Z,75.59
2023-02-09T00:29:26.460Z,75.67
2023-02-09T00:30:26.703Z,75.67
2023-02-09T00:31:26.997Z,75.56
2023-02-09T00:32:27.251Z,75.46
2023-02-09T00:33:27.495Z,75.38
2023-02-09T00:34:27.786Z,75.49
2023-02-09T00:35:28.021Z,75.59
2023-02-09T00:36:28.255Z,75.70
2023-02-09T00:37:28.536Z,75.59
2023-02-09T00:38:28.759Z,75.59
2023-02-09T00:39:29.092Z,75.49
2023-02-09T00:40:29.336Z,75.59
2023-02-09T00:41:29.562Z,75.81
2023-02-09T00:42:29.841Z,75.81
2023-02-09T00:43:30.083Z,75.81
2023-02-09T00:44:30.322Z,75.81
2023-02-09T00:45:30.612Z,75.81
2023-02-09T00:46:30.885Z,75.91
2023-02-09T00:47:31.129Z,75.91
2023-02-09T00:48:31.383Z,75.91
2023-02-09T00:49:31.632Z,75.91
2023-02-09T00:50:31.871Z,76.05
2023-02-09T00:51:32.131Z,76.05
2023-02-09T00:52:32.383Z,75.95
2023-02-09T00:53:32.622Z,75.95
2023-02-09T00:54:32.872Z,75.95
2023-02-09T00:55:33.118Z,75.95
2023-02-09T00:56:33.361Z,76.05
2023-02-09T00:57:33.610Z,76.05
2023-02-09T00:58:33.871Z,75.95
2023-02-09T00:59:34.101Z,76.05
2023-02-09T01:00:34.342Z,76.05
2023-02-09T01:01:34.614Z,75.95
2023-02-09T01:02:34.883Z,75.95
2023-02-09T01:03:35.128Z,75.95
2023-02-09T01:04:35.406Z,75.81
2023-02-09T01:05:35.636Z,75.63
2023-02-09T01:06:35.869Z,75.63
2023-02-09T01:07:36.128Z,75.73
2023-02-09T01:08:36.369Z,75.95
2023-02-09T01:09:36.632Z,75.95
2023-02-09T01:10:36.891Z,76.05
2023-02-09T01:11:37.126Z,75.91
2023-02-09T01:12:37.396Z,75.70
2023-02-09T01:13:37.628Z,75.59
2023-02-09T01:14:37.878Z,75.59
2023-02-09T01:15:38.149Z,75.49
2023-02-09T01:16:38.427Z,75.38
2023-02-09T01:17:38.733Z,75.42
2023-02-09T01:18:38.996Z,75.52
2023-02-09T01:19:39.216Z,75.73
2023-02-09T01:20:39.450Z,75.73
2023-02-09T01:21:39.698Z,75.73
2023-02-09T01:22:39.960Z,75.84
2023-02-09T01:23:40.198Z,75.95
2023-02-09T01:24:40.450Z,75.84
2023-02-09T01:25:40.675Z,75.84
2023-02-09T01:26:41.058Z,75.84
2023-02-09T01:27:41.327Z,75.95
2023-02-09T01:28:41.558Z,75.73
2023-02-09T01:29:41.813Z,75.73
2023-02-09T01:30:42.194Z,75.84
2023-02-09T01:31:42.445Z,75.84
2023-02-09T01:32:42.747Z,75.84
2023-02-09T01:33:42.978Z,75.84
2023-02-09T01:34:43.227Z,75.84
2023-02-09T01:35:43.488Z,75.84
2023-02-09T01:36:43.748Z,75.95
2023-02-09T01:37:44.008Z,75.84
2023-02-09T01:38:44.245Z,75.73
2023-02-09T01:39:44.491Z,75.73
2023-02-09T01:40:45.041Z,75.84
2023-02-09T01:41:44.984Z,75.84
2023-02-09T01:42:45.220Z,75.95
2023-02-09T01:43:45.478Z,76.05
2023-02-09T01:44:45.723Z,76.05
2023-02-09T01:45:45.955Z,75.95
2023-02-09T01:46:46.230Z,75.84
2023-02-09T01:47:46.501Z,75.95
2023-02-09T01:48:46.723Z,76.15
2023-02-09T01:49:46.971Z,76.26
2023-02-09T01:50:47.400Z,76.15
2023-02-09T01:51:47.525Z,76.15
2023-02-09T01:52:47.808Z,76.05
2023-02-09T01:53:48.027Z,76.15
2023-02-09T01:54:48.294Z,76.19
2023-02-09T01:55:48.530Z,76.29
2023-02-09T01:56:48.785Z,76.51
2023-02-09T01:57:49.033Z,76.51
2023-02-09T01:58:49.274Z,76.61
2023-02-09T01:59:49.524Z,76.72
2023-02-09T02:00:49.766Z,76.82
2023-02-09T02:01:50.059Z,76.51
2023-02-09T02:02:50.367Z,76.51
2023-02-09T02:03:50.572Z,76.51
2023-02-09T02:04:50.813Z,76.51
2023-02-09T02:05:51.067Z,76.51
2023-02-09T02:06:51.303Z,76.61
2023-02-09T02:07:51.560Z,76.72
2023-02-09T02:08:51.807Z,76.82
2023-02-09T02:09:52.045Z,77.03
2023-02-09T02:10:52.281Z,76.93
2023-02-09T02:11:52.522Z,76.93
2023-02-09T02:12:52.793Z,77.03
2023-02-09T02:13:53.045Z,77.28
2023-02-09T02:14:53.270Z,77.28
2023-02-09T02:15:53.585Z,77.45
2023-02-09T02:16:53.800Z,77.45
2023-02-09T02:17:54.070Z,77.35
2023-02-09T02:18:54.300Z,77.14
2023-02-09T02:19:54.548Z,77.24
2023-02-09T02:20:54.819Z,77.14
2023-02-09T02:21:55.052Z,77.14
2023-02-09T02:22:55.329Z,77.14
2023-02-09T02:23:55.580Z,77.24
2023-02-09T02:24:55.829Z,77.14
2023-02-09T02:25:56.073Z,77.14
2023-02-09T02:26:56.341Z,77.14
2023-02-09T02:27:56.613Z,77.17
2023-02-09T02:28:56.828Z,77.28
2023-02-09T02:29:57.087Z,77.28
2023-02-09T02:30:57.450Z,77.38
2023-02-09T02:31:57.601Z,77.49
2023-02-09T02:32:57.848Z,77.49
2023-02-09T02:33:58.100Z,77.49
2023-02-09T02:34:58.326Z,77.38
2023-02-09T02:35:58.577Z,77.49
2023-02-09T02:36:58.859Z,77.59
2023-02-09T02:37:59.103Z,77.59
2023-02-09T02:38:59.328Z,77.49
2023-02-09T02:39:59.591Z,77.59
2023-02-09T02:40:59.848Z,77.59
2023-02-09T02:42:00.114Z,77.70
2023-02-09T02:43:00.403Z,77.70
2023-02-09T02:44:00.648Z,77.70
2023-02-09T02:45:00.888Z,77.59
2023-02-09T02:46:01.177Z,77.70
2023-02-09T02:47:01.437Z,77.80
2023-02-09T02:48:01.718Z,77.70
2023-02-09T02:49:01.982Z,77.59
2023-02-09T02:50:02.212Z,77.59
2023-02-09T02:51:02.492Z,77.70
2023-02-09T02:52:02.726Z,77.73
2023-02-09T02:53:03.003Z,77.84
2023-02-09T02:54:03.248Z,77.94
2023-02-09T02:55:03.493Z,78.05
2023-02-09T02:56:03.724Z,77.94
2023-02-09T02:57:03.964Z,77.84
2023-02-09T02:58:04.241Z,77.94
2023-02-09T02:59:04.497Z,77.84
2023-02-09T03:00:04.709Z,77.84
2023-02-09T03:01:04.956Z,77.94
2023-02-09T03:02:05.214Z,77.94
2023-02-09T03:03:05.485Z,78.05
2023-02-09T03:04:05.738Z,78.26
2023-02-09T03:05:06.038Z,78.26
2023-02-09T03:06:06.254Z,78.05
2023-02-09T03:07:06.511Z,78.05
2023-02-09T03:08:06.760Z,77.84
2023-02-09T03:09:14.526Z,77.84
2023-02-09T03:10:07.339Z,77.94
2023-02-09T03:11:07.545Z,77.94
2023-02-09T03:12:07.776Z,77.94
2023-02-09T03:13:08.118Z,77.94
2023-02-09T03:14:08.334Z,78.05
2023-02-09T03:15:08.587Z,78.16
2023-02-09T03:16:08.878Z,78.05
2023-02-09T03:17:09.155Z,78.05
2023-02-09T03:18:09.386Z,78.05
2023-02-09T03:19:09.628Z,77.94
2023-02-09T03:20:09.858Z,78.05
2023-02-09T03:21:10.096Z,77.94
2023-02-09T03:22:10.325Z,77.84
2023-02-09T03:23:10.576Z,77.94
2023-02-09T03:24:10.836Z,77.94
2023-02-09T03:25:11.075Z,78.05
2023-02-09T03:26:11.335Z,78.05
2023-02-09T03:27:11.567Z,78.05
2023-02-09T03:28:11.822Z,78.05
2023-02-09T03:29:12.053Z,78.08
2023-02-09T03:30:12.299Z,78.19
2023-02-09T03:31:12.651Z,78.19
2023-02-09T03:32:12.759Z,78.08
2023-02-09T03:33:13.020Z,78.16
2023-02-09T03:34:13.246Z,78.05
2023-02-09T03:35:13.487Z,77.98
2023-02-09T03:36:13.710Z,78.08
2023-02-09T03:37:14.056Z,78.08
2023-02-09T03:38:14.305Z,78.08
2023-02-09T03:39:14.554Z,77.98
2023-02-09T03:40:14.812Z,77.98
2023-02-09T03:41:15.034Z,77.98
2023-02-09T03:42:15.248Z,77.98
2023-02-09T03:43:15.627Z,78.19
2023-02-09T03:44:15.880Z,78.30
2023-02-09T03:45:16.111Z,78.30
2023-02-09T03:46:16.373Z,78.05
2023-02-09T03:47:16.606Z,77.84
2023-02-09T03:48:16.979Z,77.73
2023-02-09T03:49:17.242Z,77.73
2023-02-09T03:50:17.481Z,77.77
2023-02-09T03:51:17.832Z,77.63
2023-02-09T03:52:18.059Z,77.56
2023-02-09T03:53:18.306Z,77.45
2023-02-09T03:54:18.559Z,77.45
2023-02-09T03:55:18.865Z,77.45
2023-02-09T03:56:19.095Z,77.56
2023-02-09T03:57:19.335Z,77.31
2023-02-09T03:58:19.574Z,77.34
2023-02-09T03:59:19.814Z,77.34
2023-02-09T04:00:20.038Z,77.34
2023-02-09T04:01:20.467Z,77.24
2023-02-09T04:02:20.728Z,77.24
2023-02-09T04:03:20.996Z,77.24
2023-02-09T04:04:21.227Z,77.34
2023-02-09T04:05:21.464Z,77.24
2023-02-09T04:06:21.785Z,77.34
2023-02-09T04:07:22.187Z,77.24
2023-02-09T04:08:22.427Z,77.34
2023-02-09T04:09:22.665Z,77.34
2023-02-09T04:10:22.906Z,77.56
2023-02-09T04:11:23.567Z,77.66
2023-02-09T04:12:23.362Z,77.66
2023-02-09T04:13:23.727Z,77.66
2023-02-09T04:14:23.977Z,77.56
2023-02-09T04:15:24.202Z,77.14
2023-02-09T04:16:24.504Z,77.14
2023-02-09T04:17:24.744Z,77.24
2023-02-09T04:18:25.136Z,77.14
2023-02-09T04:19:25.342Z,77.03
2023-02-09T04:20:25.581Z,77.03
2023-02-09T04:21:25.806Z,77.03
2023-02-09T04:22:26.067Z,76.92
2023-02-09T04:23:26.314Z,77.03
2023-02-09T04:24:26.543Z,77.14
2023-02-09T04:25:26.783Z,77.14
2023-02-09T04:26:27.024Z,77.14
2023-02-09T04:27:27.266Z,77.03
2023-02-09T04:28:27.635Z,77.03
2023-02-09T04:29:27.847Z,77.14
2023-02-09T04:30:28.085Z,77.14
2023-02-09T04:31:28.456Z,77.03
2023-02-09T04:32:28.609Z,77.14
2023-02-09T04:33:28.856Z,77.14
2023-02-09T04:34:29.106Z,77.17
2023-02-09T04:35:29.338Z,77.28
2023-02-09T04:36:29.581Z,77.38
2023-02-09T04:37:29.819Z,77.38
2023-02-09T04:38:30.081Z,77.38
2023-02-09T04:39:30.313Z,77.48
2023-02-09T04:40:30.538Z,77.38
2023-02-09T04:41:30.779Z,77.48
2023-02-09T04:42:31.032Z,77.48
2023-02-09T04:43:31.295Z,77.38
2023-02-09T04:44:31.518Z,77.28
2023-02-09T04:45:31.798Z,77.28
2023-02-09T04:46:32.018Z,77.28
2023-02-09T04:47:32.249Z,77.48
2023-02-09T04:48:32.512Z,77.48
2023-02-09T04:49:32.741Z,77.48
2023-02-09T04:50:32.983Z,77.48
2023-02-09T04:51:33.209Z,77.42
2023-02-09T04:52:33.461Z,77.52
2023-02-09T04:53:33.738Z,77.73
2023-02-09T04:54:33.987Z,77.84
2023-02-09T04:55:34.210Z,77.94
2023-02-09T04:56:34.460Z,78.05
2023-02-09T04:57:34.683Z,77.84
2023-02-09T04:58:34.931Z,77.94
2023-02-09T04:59:35.162Z,77.84
2023-02-09T05:00:35.396Z,77.73
2023-02-09T05:01:35.667Z,77.84
2023-02-09T05:02:35.901Z,77.94
2023-02-09T05:03:36.175Z,78.05
2023-02-09T05:04:36.441Z,78.26
2023-02-09T05:05:36.661Z,78.16
2023-02-09T05:06:36.903Z,78.16
2023-02-09T05:07:37.157Z,78.16
2023-02-09T05:08:37.421Z,78.16
2023-02-09T05:09:37.652Z,78.16
2023-02-09T05:10:37.882Z,78.05
2023-02-09T05:11:38.122Z,78.05
2023-02-09T05:12:38.393Z,77.94
2023-02-09T05:13:38.632Z,78.05
2023-02-09T05:14:38.888Z,77.84
2023-02-09T05:15:39.110Z,77.84
2023-02-09T05:16:39.624Z,77.84
2023-02-09T05:17:39.691Z,77.94
2023-02-09T05:18:39.941Z,77.94
2023-02-09T05:19:40.173Z,77.94
2023-02-09T05:20:40.416Z,77.94
2023-02-09T05:21:40.652Z,77.94
2023-02-09T05:22:40.884Z,78.05
2023-02-09T05:23:41.141Z,78.05
2023-02-09T05:24:41.372Z,78.05
2023-02-09T05:25:41.613Z,78.05
2023-02-09T05:26:41.861Z,78.26
2023-02-09T05:27:42.122Z,78.16
2023-02-09T05:28:42.411Z,78.16
2023-02-09T05:29:42.633Z,78.16
2023-02-09T05:30:42.989Z,78.05
2023-02-09T05:31:43.341Z,78.30
2023-02-09T05:32:43.352Z,78.30
2023-02-09T05:33:43.601Z,78.40
2023-02-09T05:34:43.851Z,78.30
2023-02-09T05:35:44.085Z,78.30
2023-02-09T05:36:44.342Z,78.19
2023-02-09T05:37:44.571Z,78.08
2023-02-09T05:38:44.835Z,78.19
2023-02-09T05:39:45.108Z,78.30
2023-02-09T05:40:45.507Z,78.30
2023-02-09T05:41:45.575Z,78.30
2023-02-09T05:42:45.812Z,78.40
2023-02-09T05:43:46.091Z,78.26
2023-02-09T05:44:46.323Z,78.05
2023-02-09T05:45:46.695Z,77.84
2023-02-09T05:46:46.834Z,77.73
2023-02-09T05:47:47.075Z,77.63
2023-02-09T05:48:47.323Z,77.52
2023-02-09T05:49:47.552Z,77.52
2023-02-09T05:50:48.152Z,77.52
2023-02-09T05:51:48.135Z,77.52
2023-02-09T05:52:48.484Z,77.45
2023-02-09T05:53:48.744Z,77.45
2023-02-09T05:54:48.984Z,77.56
2023-02-09T05:55:49.196Z,77.56
2023-02-09T05:56:49.565Z,77.52
2023-02-09T05:57:49.799Z,77.52
2023-02-09T05:58:50.061Z,77.56
2023-02-09T05:59:50.311Z,77.31
2023-02-09T06:00:50.561Z,77.42
2023-02-09T06:01:50.786Z,77.45
2023-02-09T06:02:51.018Z,77.45
2023-02-09T06:03:51.351Z,77.45
2023-02-09T06:04:51.513Z,77.34
2023-02-09T06:05:51.740Z,77.34
2023-02-09T06:06:51.990Z,77.34
2023-02-09T06:07:52.218Z,77.56
2023-02-09T06:08:52.487Z,77.66
2023-02-09T06:09:52.728Z,77.56
2023-02-09T06:10:52.981Z,77.66
2023-02-09T06:11:53.229Z,77.66
2023-02-09T06:12:54.152Z,77.70
2023-02-09T06:13:53.839Z,77.70
2023-02-09T06:14:54.086Z,77.91
2023-02-09T06:15:54.383Z,78.02
2023-02-09T06:16:54.619Z,78.02
2023-02-09T06:17:54.857Z,78.02
2023-02-09T06:18:55.138Z,78.02
2023-02-09T06:19:55.379Z,78.02
2023-02-09T06:20:55.649Z,78.02
2023-02-09T06:21:55.888Z,78.02
2023-02-09T06:22:56.144Z,78.12
2023-02-09T06:23:56.413Z,78.12
2023-02-09T06:24:56.638Z,78.12
2023-02-09T06:25:56.905Z,78.12
2023-02-09T06:26:57.167Z,78.02
2023-02-09T06:27:57.481Z,78.12
2023-02-09T06:28:57.772Z,77.91
2023-02-09T06:29:58.018Z,77.80
2023-02-09T06:30:58.452Z,77.80
2023-02-09T06:31:58.679Z,77.80
2023-02-09T06:32:58.844Z,77.91
2023-02-09T06:33:59.113Z,77.91
2023-02-09T06:34:59.402Z,77.80
2023-02-09T06:35:59.680Z,77.70
2023-02-09T06:36:59.922Z,77.70
2023-02-09T06:38:00.180Z,77.70
2023-02-09T06:39:00.480Z,77.70
2023-02-09T06:40:00.755Z,77.80
2023-02-09T06:41:01.013Z,77.91
2023-02-09T06:42:01.298Z,77.91
2023-02-09T06:43:01.560Z,77.91
2023-02-09T06:44:01.821Z,77.91
2023-02-09T06:45:02.090Z,78.02
2023-02-09T06:46:02.423Z,77.91
2023-02-09T06:47:02.662Z,77.77
2023-02-09T06:48:02.911Z,77.87
2023-02-09T06:49:03.265Z,77.77
2023-02-09T06:50:03.602Z,77.77
2023-02-09T06:51:03.933Z,77.66
2023-02-09T06:52:04.192Z,77.52
2023-02-09T06:53:04.454Z,77.42
2023-02-09T06:54:04.776Z,77.42
2023-02-09T06:55:05.053Z,77.42
2023-02-09T06:56:05.323Z,77.52
2023-02-09T06:57:05.575Z,77.42
2023-02-09T06:58:05.832Z,77.20
2023-02-09T06:59:06.118Z,77.17
2023-02-09T07:00:06.378Z,77.06
2023-02-09T07:01:06.645Z,76.86
2023-02-09T07:02:06.949Z,76.64
2023-02-09T07:03:07.296Z,76.54
2023-02-09T07:04:07.591Z,76.43
2023-02-09T07:05:07.862Z,76.54
2023-02-09T07:06:08.134Z,76.40
2023-02-09T07:07:08.429Z,76.29
2023-02-09T07:08:08.696Z,76.29
2023-02-09T07:09:08.986Z,76.19
2023-02-09T07:10:09.261Z,76.08
2023-02-09T07:11:09.533Z,75.98
2023-02-09T07:12:09.803Z,75.98
2023-02-09T07:13:10.082Z,75.87
2023-02-09T07:14:10.371Z,75.98
2023-02-09T07:15:10.644Z,75.98
2023-02-09T07:16:11.016Z,75.98
2023-02-09T07:17:11.193Z,75.87
2023-02-09T07:18:11.474Z,75.73
2023-02-09T07:19:11.775Z,75.84
2023-02-09T07:20:12.057Z,75.73
2023-02-09T07:21:12.317Z,75.63
2023-02-09T07:22:12.574Z,75.63
2023-02-09T07:23:12.851Z,75.52
2023-02-09T07:24:13.186Z,75.21
2023-02-09T07:25:13.458Z,74.89
2023-02-09T07:26:13.722Z,74.89
2023-02-09T07:27:14.006Z,74.99
2023-02-09T07:28:14.324Z,75.07
2023-02-09T07:29:14.613Z,75.17
2023-02-09T07:30:14.875Z,74.75
2023-02-09T07:31:15.299Z,74.54
2023-02-09T07:32:15.426Z,74.43
2023-02-09T07:33:15.685Z,74.33
2023-02-09T07:34:15.975Z,74.43
2023-02-09T07:35:16.246Z,74.43
2023-02-09T07:36:16.513Z,74.43
2023-02-09T07:37:16.834Z,74.54
2023-02-09T07:38:17.082Z,74.61
2023-02-09T07:39:17.412Z,74.61
2023-02-09T07:40:17.705Z,74.61
2023-02-09T07:41:17.976Z,74.40
2023-02-09T07:42:18.258Z,74.26
2023-02-09T07:43:18.540Z,74.16
2023-02-09T07:44:18.851Z,73.84
2023-02-09T07:45:19.132Z,73.52
2023-02-09T07:46:19.427Z,73.52
2023-02-09T07:47:19.689Z,73.39
2023-02-09T07:48:19.969Z,73.28
2023-02-09T07:49:20.258Z,73.39
2023-02-09T07:50:20.538Z,73.39
2023-02-09T07:51:20.838Z,73.28
2023-02-09T07:52:21.117Z,73.07
2023-02-09T07:53:21.382Z,72.75
2023-02-09T07:54:21.704Z,72.55
2023-02-09T07:55:21.980Z,72.55
2023-02-09T07:56:23.010Z,72.62
2023-02-09T07:57:22.539Z,72.72
2023-02-09T07:58:22.792Z,72.93
2023-02-09T07:59:23.088Z,72.83
2023-02-09T08:00:23.303Z,72.83
2023-02-09T08:01:23.623Z,72.62
2023-02-09T08:02:23.889Z,72.38
2023-02-09T08:03:25.654Z,72.38
2023-02-09T08:04:24.516Z,72.27
2023-02-09T08:05:24.841Z,72.38
2023-02-09T08:06:36.283Z,72.38
2023-02-09T08:07:26.255Z,72.38
2023-02-09T08:08:25.600Z,72.38
2023-02-09T08:09:26.008Z,72.38
2023-02-09T08:10:26.183Z,72.27
2023-02-09T08:11:26.447Z,72.45
2023-02-09T08:12:26.745Z,72.45
2023-02-09T08:13:27.060Z,72.24
2023-02-09T08:14:27.350Z,71.71
2023-02-09T08:15:27.622Z,71.61
2023-02-09T08:16:27.959Z,71.61
2023-02-09T08:17:28.248Z,71.61
2023-02-09T08:18:28.523Z,71.61
2023-02-09T08:19:28.825Z,71.50
2023-02-09T08:20:29.096Z,71.61
2023-02-09T08:21:29.379Z,71.68
2023-02-09T08:22:29.676Z,71.68
2023-02-09T08:23:29.947Z,71.36
2023-02-09T08:24:30.216Z,71.26
2023-02-09T08:25:30.513Z,71.15
2023-02-09T08:26:30.781Z,71.26
2023-02-09T08:27:31.068Z,70.81
2023-02-09T08:28:43.315Z,70.70
2023-02-09T08:29:32.629Z,70.39
2023-02-09T08:30:31.866Z,70.28
2023-02-09T08:31:32.254Z,70.18
2023-02-09T08:32:32.397Z,70.28
2023-02-09T08:33:32.675Z,70.18
2023-02-09T08:34:32.965Z,70.07
2023-02-09T08:35:33.263Z,70.15
2023-02-09T08:36:33.548Z,70.36
2023-02-09T08:37:33.826Z,70.15
2023-02-09T08:38:34.108Z,69.93
2023-02-09T08:39:34.444Z,69.62
2023-02-09T08:40:34.713Z,69.73
2023-02-09T08:41:35.015Z,69.73
2023-02-09T08:42:35.297Z,69.70
2023-02-09T08:43:35.570Z,69.80
2023-02-09T08:44:35.862Z,69.48
2023-02-09T08:45:36.299Z,69.07
2023-02-09T08:46:36.583Z,68.85
2023-02-09T08:47:36.748Z,68.54
2023-02-09T08:48:37.040Z,68.41
2023-02-09T08:49:37.340Z,68.09
2023-02-09T08:50:37.680Z,67.78
2023-02-09T08:51:38.008Z,67.49
2023-02-09T08:52:38.310Z,67.46
2023-02-09T08:53:38.610Z,67.18
2023-02-09T08:54:38.910Z,67.25
2023-02-09T08:55:39.228Z,67.05
2023-02-09T08:56:39.535Z,66.94
2023-02-09T08:57:44.429Z,67.05
2023-02-09T08:58:41.062Z,67.05
2023-02-09T08:59:40.428Z,67.25
2023-02-09T09:00:40.764Z,67.36
2023-02-09T09:01:41.011Z,67.33
2023-02-09T09:02:41.218Z,67.33
2023-02-09T09:03:41.491Z,66.80
2023-02-09T09:04:41.853Z,66.70
2023-02-09T09:05:42.132Z,66.70
2023-02-09T09:06:42.464Z,66.70
2023-02-09T09:07:42.670Z,66.25
2023-02-09T09:08:42.972Z,66.04
2023-02-09T09:09:43.345Z,66.14
2023-02-09T09:10:43.649Z,65.94
2023-02-09T09:11:43.733Z,66.04
2023-02-09T09:12:44.008Z,65.83
2023-02-09T09:13:44.272Z,65.83
2023-02-09T09:14:44.663Z,65.80
2023-02-09T09:15:45.319Z,65.28
2023-02-09T09:16:45.101Z,65.17
2023-02-09T09:17:45.414Z,64.97
2023-02-09T09:18:45.694Z,65.07
2023-02-09T09:19:45.940Z,65.38
2023-02-09T09:20:46.225Z,65.38
2023-02-09T09:21:46.456Z,65.28
2023-02-09T09:22:46.714Z,65.38
2023-02-09T09:23:47.031Z,65.28
2023-02-09T09:24:47.308Z,65.36
2023-02-09T09:25:47.914Z,64.94
2023-02-09T09:26:47.889Z,64.51
2023-02-09T09:27:48.143Z,64.62
2023-02-09T09:28:49.191Z,64.20
2023-02-09T09:29:48.726Z,64.00
2023-02-09T09:30:49.001Z,63.89
2023-02-09T09:31:49.296Z,64.28
2023-02-09T09:32:51.455Z,64.59
2023-02-09T09:33:49.829Z,64.39
2023-02-09T09:34:50.104Z,63.96
2023-02-09T09:35:50.358Z,64.07
2023-02-09T09:36:50.679Z,64.17
2023-02-09T09:37:50.930Z,63.96
2023-02-09T09:38:51.161Z,63.65
2023-02-09T09:39:51.423Z,63.65
2023-02-09T09:40:51.709Z,63.23
2023-02-09T09:41:51.958Z,63.23
2023-02-09T09:42:52.208Z,63.13
2023-02-09T09:43:52.464Z,63.23
2023-02-09T09:44:52.731Z,63.13
2023-02-09T09:45:53.025Z,63.23
2023-02-09T09:46:53.228Z,63.02
2023-02-09T09:47:53.468Z,62.60
2023-02-09T09:48:53.805Z,62.60
2023-02-09T09:49:54.047Z,62.50
2023-02-09T09:50:54.290Z,62.40
2023-02-09T09:51:54.541Z,61.98
2023-02-09T09:52:54.781Z,62.08
2023-02-09T09:53:55.023Z,61.95
2023-02-09T09:54:55.286Z,61.74
2023-02-09T09:55:55.548Z,61.85
2023-02-09T09:56:55.801Z,62.37
2023-02-09T09:57:56.049Z,62.26
2023-02-09T09:58:56.299Z,62.13
2023-02-09T09:59:56.550Z,61.71
2023-02-09T10:00:56.804Z,61.30
2023-02-09T10:01:57.028Z,60.98
2023-02-09T10:02:57.265Z,60.77
2023-02-09T10:03:57.499Z,60.67
2023-02-09T10:04:57.820Z,60.46
2023-02-09T10:05:58.044Z,60.98
2023-02-09T10:06:58.275Z,60.98
2023-02-09T10:07:58.496Z,60.98
2023-02-09T10:08:59.079Z,60.67
2023-02-09T10:09:59.006Z,60.96
2023-02-09T10:10:59.238Z,60.85
2023-02-09T10:11:59.475Z,60.75
2023-02-09T10:12:59.710Z,60.96
2023-02-09T10:13:59.958Z,60.96
2023-02-09T10:15:00.378Z,60.22
2023-02-09T10:16:00.820Z,60.02
2023-02-09T10:17:00.800Z,60.02
2023-02-09T10:18:01.065Z,59.91
2023-02-09T10:19:01.298Z,59.78
2023-02-09T10:20:01.597Z,59.99
2023-02-09T10:21:01.830Z,59.78
2023-02-09T10:22:02.092Z,59.78
2023-02-09T10:23:02.356Z,59.99
2023-02-09T10:24:03.175Z,60.41
2023-02-09T10:25:02.871Z,60.30
2023-02-09T10:26:03.158Z,59.78
2023-02-09T10:27:03.382Z,59.44
2023-02-09T10:28:03.638Z,59.23
2023-02-09T10:29:03.887Z,59.02
2023-02-09T10:30:04.154Z,59.02
2023-02-09T10:31:04.438Z,59.23
2023-02-09T10:32:04.679Z,59.33
2023-02-09T10:33:04.955Z,59.65
2023-02-09T10:34:05.217Z,59.55
2023-02-09T10:35:05.561Z,59.33
2023-02-09T10:36:05.685Z,59.52
2023-02-09T10:37:05.933Z,59.72
2023-02-09T10:38:06.202Z,59.31
2023-02-09T10:39:06.438Z,58.68
2023-02-09T10:40:06.699Z,58.68
2023-02-09T10:41:10.654Z,58.68
2023-02-09T10:42:07.381Z,58.68
2023-02-09T10:43:07.482Z,58.47
2023-02-09T10:44:07.737Z,59.10
2023-02-09T10:45:08.013Z,58.68
2023-02-09T10:46:08.326Z,58.26
2023-02-09T10:47:08.576Z,58.37
2023-02-09T10:48:08.817Z,58.37
2023-02-09T10:49:09.091Z,58.47
2023-02-09T10:50:09.346Z,58.37
2023-02-09T10:51:09.619Z,58.47
2023-02-09T10:52:09.861Z,58.79
2023-02-09T10:53:10.100Z,58.58
2023-02-09T10:54:11.098Z,58.58
2023-02-09T10:55:10.582Z,57.64
2023-02-09T10:56:10.823Z,57.32
2023-02-09T10:57:11.077Z,57.32
2023-02-09T10:58:11.342Z,57.01
2023-02-09T10:59:12.377Z,57.22
2023-02-09T11:00:11.829Z,57.12
2023-02-09T11:01:12.102Z,57.12
2023-02-09T11:02:14.116Z,57.64
2023-02-09T11:03:12.565Z,57.64
2023-02-09T11:04:12.823Z,57.32
2023-02-09T11:05:13.090Z,57.12
2023-02-09T11:06:13.324Z,57.12
2023-02-09T11:07:13.563Z,56.81
2023-02-09T11:08:14.612Z,57.32
2023-02-09T11:09:14.048Z,57.95
2023-02-09T11:10:14.305Z,57.93
2023-02-09T11:11:14.555Z,58.14
2023-02-09T11:12:14.809Z,58.24
2023-02-09T11:13:15.047Z,58.24
2023-02-09T11:14:15.305Z,58.14
2023-02-09T11:15:15.606Z,58.24
2023-02-09T11:16:15.854Z,57.82
2023-02-09T11:17:16.958Z,57.30
2023-02-09T11:18:16.410Z,57.82
2023-02-09T11:19:16.707Z,57.61
2023-02-09T11:20:17.044Z,57.48
2023-02-09T11:21:17.186Z,56.96
2023-02-09T11:22:17.430Z,56.44
2023-02-09T11:23:17.698Z,56.13
2023-02-09T11:24:17.951Z,56.23
2023-02-09T11:25:18.221Z,56.23
2023-02-09T11:26:18.795Z,56.34
2023-02-09T11:27:18.711Z,56.23
2023-02-09T11:28:19.046Z,56.34
2023-02-09T11:29:19.275Z,56.34
2023-02-09T11:30:19.560Z,55.92
2023-02-09T11:31:19.941Z,55.82
2023-02-09T11:32:20.101Z,55.92
2023-02-09T11:33:20.368Z,55.92
2023-02-09T11:34:20.623Z,55.71
2023-02-09T11:35:20.883Z,55.82
2023-02-09T11:36:21.114Z,55.51
2023-02-09T11:37:21.361Z,55.30
2023-02-09T11:38:21.613Z,54.88
2023-02-09T11:39:21.873Z,54.99
2023-02-09T11:40:22.155Z,55.38
2023-02-09T11:41:22.389Z,55.69
2023-02-09T11:42:22.636Z,55.27
2023-02-09T11:43:22.896Z,55.38
2023-02-09T11:44:23.146Z,55.27
2023-02-09T11:45:23.440Z,55.16
2023-02-09T11:46:23.786Z,55.48
2023-02-09T11:47:24.010Z,55.58
2023-02-09T11:48:25.041Z,55.38
2023-02-09T11:49:24.602Z,55.27
2023-02-09T11:50:24.870Z,55.27
2023-02-09T11:51:25.919Z,55.27
2023-02-09T11:52:25.363Z,55.38
2023-02-09T11:53:25.639Z,55.24
2023-02-09T11:54:25.878Z,55.24
2023-02-09T11:55:26.168Z,55.56
2023-02-09T11:56:26.416Z,55.24
2023-02-09T11:57:26.686Z,55.24
2023-02-09T11:58:26.961Z,55.45
2023-02-09T11:59:27.267Z,55.45
2023-02-09T12:00:27.534Z,55.45
2023-02-09T12:01:27.795Z,55.66
2023-02-09T12:02:28.106Z,55.35
2023-02-09T12:03:28.348Z,55.04
2023-02-09T12:04:28.686Z,54.93
2023-02-09T12:05:28.875Z,55.04
2023-02-09T12:06:29.130Z,54.80
2023-02-09T12:07:31.848Z,54.70
2023-02-09T12:08:29.730Z,54.80
2023-02-09T12:09:30.000Z,54.80
2023-02-09T12:10:30.283Z,55.11
2023-02-09T12:11:30.545Z,55.11
2023-02-09T12:12:30.791Z,54.80
2023-02-09T12:13:31.023Z,54.49
2023-02-09T12:14:31.278Z,54.39
2023-02-09T12:15:31.526Z,54.08
2023-02-09T12:16:31.818Z,54.08
2023-02-09T12:17:32.105Z,53.87
2023-02-09T12:18:32.344Z,53.87
2023-02-09T12:19:32.593Z,54.18
2023-02-09T12:20:32.841Z,54.39
2023-02-09T12:21:33.098Z,54.08
2023-02-09T12:22:33.365Z,54.49
2023-02-09T12:23:33.632Z,54.70
2023-02-09T12:24:33.863Z,54.70
2023-02-09T12:25:34.922Z,54.68
2023-02-09T12:26:34.436Z,54.78
2023-02-09T12:27:34.690Z,54.99
2023-02-09T12:28:35.028Z,54.26
2023-02-09T12:29:35.369Z,54.26
2023-02-09T12:30:35.630Z,54.47
2023-02-09T12:31:36.030Z,54.36
2023-02-09T12:32:36.125Z,54.05
2023-02-09T12:33:36.409Z,53.53
2023-02-09T12:34:36.645Z,53.43
2023-02-09T12:35:36.914Z,53.43
2023-02-09T12:36:37.139Z,53.01
2023-02-09T12:37:37.393Z,53.01
2023-02-09T12:38:37.645Z,53.01
2023-02-09T12:39:38.081Z,53.33
2023-02-09T12:40:38.217Z,53.64
2023-02-09T12:41:40.923Z,53.53
2023-02-09T12:42:38.731Z,53.33
2023-02-09T12:43:38.965Z,53.22
2023-02-09T12:44:39.272Z,53.01
2023-02-09T12:45:39.659Z,53.11
2023-02-09T12:46:39.793Z,53.22
2023-02-09T12:47:40.017Z,53.43
2023-02-09T12:48:40.283Z,53.41
2023-02-09T12:49:40.539Z,53.30
2023-02-09T12:50:40.814Z,53.51
2023-02-09T12:51:41.061Z,53.61
2023-02-09T12:52:41.308Z,53.09
2023-02-09T12:53:41.539Z,53.09
2023-02-09T12:54:41.797Z,53.09
2023-02-09T12:55:42.076Z,52.98